Terminal Aerodrome Forecast
Issued by NWS Cheyenne, WY

Home | Current Version | Previous Version | Text Only | Print | Product List | Glossary On
Versions: 1 2 3 4 5 6 7 8 9 10 11 12 13 14 15 16 17 18 19 20 21 22 23 24 25 26 27 28 29 30 31 32 33 34 35 36 37 38 39
918
FTUS45 KCYS 262109 AAC
TAFCYS
TAF AMD
KCYS 262109Z 2621/2718 05012KT P6SM FEW030 BKN040
     FM262230 06008KT P6SM VCSH SCT030 BKN040
     FM270200 13006KT P6SM VCSH BKN040=

USA.gov is the U.S. government's official web portal to all federal, state and local government web resources and services.